Time;durP1;ratioP1;P1;durP2;ratioP2;P2;SDS_P1;SDS_P2;PMS_P1;PMS_P2;Temp;Humidity;BMP_temperature;BMP_pressure;BME280_temperature;BME280_humidity;BME280_pressure;Samples;Min_cycle;Max_cycle;Signal;HPM_P1;HPM_P2
2022/06/23 00:00:46;;;;;;;16.43;4.50;;;;;;;23.52;64.55;97116.81;5051349;28;20425;-72
2022/06/23 00:03:18;;;;;;;11.30;4.17;;;;;;;23.50;64.43;97110.91;5052260;28;20431;-72
2022/06/23 00:05:49;;;;;;;11.87;4.10;;;;;;;23.50;64.41;97100.19;5052312;28;20449;-72
2022/06/23 00:08:15;;;;;;;10.53;4.27;;;;;;;23.46;64.83;97105.22;5053658;28;20422;-73
2022/06/23 00:10:45;;;;;;;13.37;4.87;;;;;;;23.45;65.15;97109.75;5063491;28;20772;-73
2022/06/23 00:13:16;;;;;;;15.53;5.60;;;;;;;23.45;65.26;97111.63;5052060;28;20826;-72
2022/06/23 00:15:44;;;;;;;16.23;5.17;;;;;;;23.43;65.09;97109.19;5050947;28;20510;-72
2022/06/23 00:18:18;;;;;;;15.30;4.40;;;;;;;23.36;65.11;97105.81;5051661;28;21091;-71
2022/06/23 00:20:50;;;;;;;15.77;5.10;;;;;;;23.37;65.22;97107.44;5050974;28;20936;-71
2022/06/23 00:23:20;;;;;;;17.97;4.50;;;;;;;23.39;65.11;97110.72;5050586;28;20421;-73
2022/06/23 00:26:00;;;;;;;17.07;4.63;;;;;;;23.37;64.93;97102.09;5050681;28;20486;-72
2022/06/23 00:28:31;;;;;;;15.33;4.60;;;;;;;23.37;64.87;97102.09;5052785;28;20406;-72
2022/06/23 00:30:59;;;;;;;19.57;4.43;;;;;;;23.36;64.97;97099.69;5050915;28;20434;-71
2022/06/23 00:33:45;;;;;;;9.23;4.13;;;;;;;23.31;64.88;97103.88;5051488;28;20452;-71
2022/06/23 00:36:16;;;;;;;15.20;4.57;;;;;;;23.25;65.18;97112.81;5051903;28;20949;-69
2022/06/23 00:38:41;;;;;;;14.13;4.47;;;;;;;23.19;65.12;97108.41;5051653;28;20429;-72
2022/06/23 00:41:14;;;;;;;10.83;5.10;;;;;;;23.07;65.64;97119.09;5052354;28;20440;-71
2022/06/23 00:43:44;;;;;;;14.30;5.73;;;;;;;22.94;66.22;97111.34;5051779;28;20174;-71
2022/06/23 00:46:15;;;;;;;11.53;5.20;;;;;;;22.81;66.88;97126.56;5050092;28;20453;-71
2022/06/23 00:48:45;;;;;;;10.23;6.17;;;;;;;22.83;66.81;97118.31;5051390;28;20441;-71
2022/06/23 00:51:22;;;;;;;13.07;4.60;;;;;;;22.85;66.92;97122.38;5050356;28;20796;-70
2022/06/23 00:53:55;;;;;;;11.63;4.50;;;;;;;22.88;66.83;97121.09;5050313;28;20478;-71
2022/06/23 00:56:53;;;;;;;11.23;4.50;;;;;;;22.85;66.97;97116.25;5049751;28;20449;-70
2022/06/23 00:59:27;;;;;;;11.60;5.10;;;;;;;22.85;66.63;97114.38;5049520;28;20476;-70
2022/06/23 01:02:08;;;;;;;15.27;4.97;;;;;;;22.62;67.36;97111.72;5051100;28;20828;-71
2022/06/23 01:04:51;;;;;;;8.80;4.83;;;;;;;22.65;67.51;97111.25;5042717;28;20458;-71
2022/06/23 01:07:30;;;;;;;10.27;4.80;;;;;;;22.54;67.81;97115.53;5051705;28;20957;-71
2022/06/23 01:10:13;;;;;;;14.13;4.27;;;;;;;22.59;67.85;97126.34;5049624;28;20479;-70
2022/06/23 01:12:48;;;;;;;11.13;4.67;;;;;;;22.60;67.68;97127.16;5049399;28;20517;-72
2022/06/23 01:15:33;;;;;;;12.13;4.63;;;;;;;22.65;67.38;97140.63;5033155;28;20478;-71
2022/06/23 01:18:04;;;;;;;13.43;4.70;;;;;;;22.53;67.31;97140.59;5025829;28;20581;-70
2022/06/23 01:20:32;;;;;;;13.43;4.87;;;;;;;22.53;67.67;97141.44;5044259;28;20425;-70
2022/06/23 01:23:09;;;;;;;16.60;5.23;;;;;;;22.59;67.46;97145.03;5045657;28;20437;-71
2022/06/23 01:25:55;;;;;;;13.10;4.93;;;;;;;22.52;67.41;97147.81;5049903;28;20453;-71
2022/06/23 01:28:23;;;;;;;18.43;4.63;;;;;;;22.50;67.28;97152.56;5048116;28;20430;-71
2022/06/23 01:31:03;;;;;;;21.47;5.27;;;;;;;22.50;67.29;97154.41;5049872;28;20433;-70
2022/06/23 01:33:37;;;;;;;14.13;4.20;;;;;;;22.53;67.01;97162.81;5049199;28;20437;-70
2022/06/23 01:36:06;;;;;;;10.93;4.87;;;;;;;22.53;67.09;97164.63;5051456;28;20458;-71
2022/06/23 01:38:54;;;;;;;11.60;4.67;;;;;;;22.55;66.61;97163.38;5050301;28;20446;-70
2022/06/23 01:41:41;;;;;;;12.70;4.83;;;;;;;22.46;66.83;97151.41;5050671;28;20483;-71
2022/06/23 01:44:18;;;;;;;15.17;4.57;;;;;;;22.38;66.91;97155.19;5042528;28;20454;-70
2022/06/23 01:46:48;;;;;;;12.83;4.00;;;;;;;22.28;67.19;97159.47;5054213;28;20916;-70
2022/06/23 01:49:28;;;;;;;11.70;4.33;;;;;;;22.25;67.02;97158.88;5049215;28;20425;-71
2022/06/23 01:51:55;;;;;;;15.10;4.40;;;;;;;22.10;66.96;97161.16;5049530;28;20437;-71
2022/06/23 01:54:20;;;;;;;11.97;4.50;;;;;;;22.11;67.60;97162.78;5050488;28;20475;-71
2022/06/23 01:57:02;;;;;;;9.67;4.40;;;;;;;22.15;67.60;97165.81;5050532;28;20550;-71
2022/06/23 01:59:31;;;;;;;11.57;4.80;;;;;;;22.17;67.07;97145.88;5034360;28;20274;-70
2022/06/23 02:02:11;;;;;;;12.77;4.20;;;;;;;22.17;67.10;97151.22;5047364;28;20437;-71
2022/06/23 02:05:14;;;;;;;14.50;4.53;;;;;;;22.17;67.13;97155.72;5050494;28;20524;-71
2022/06/23 02:07:42;;;;;;;16.20;4.50;;;;;;;22.08;67.21;97160.56;5043736;28;20798;-71
2022/06/23 02:10:31;;;;;;;12.73;4.60;;;;;;;22.06;66.98;97154.63;5051944;28;20897;-71
2022/06/23 02:13:00;;;;;;;9.50;4.57;;;;;;;22.08;66.89;97157.91;5050659;28;20418;-71
2022/06/23 02:15:29;;;;;;;15.87;4.33;;;;;;;22.11;66.70;97164.66;5062792;28;20523;-71
2022/06/23 02:18:02;;;;;;;12.03;4.93;;;;;;;22.09;66.76;97157.69;5053070;28;20511;-73
2022/06/23 02:20:37;;;;;;;12.73;4.47;;;;;;;21.99;66.82;97157.41;5047103;28;20436;-72
2022/06/23 02:23:13;;;;;;;9.47;4.13;;;;;;;21.84;67.02;97157.00;5053018;28;20433;-72
2022/06/23 02:25:43;;;;;;;8.20;4.00;;;;;;;21.84;67.00;97155.16;5053016;28;20425;-71
2022/06/23 02:28:22;;;;;;;12.80;4.53;;;;;;;21.87;66.91;97157.38;5053584;28;20470;-71
2022/06/23 02:30:53;;;;;;;12.43;4.17;;;;;;;21.90;66.55;97172.09;5058115;28;21126;-72
2022/06/23 02:33:18;;;;;;;18.63;4.70;;;;;;;21.90;66.72;97170.25;5053968;28;20461;-71
2022/06/23 02:35:52;;;;;;;11.07;4.07;;;;;;;21.91;66.50;97168.41;5052077;28;20511;-72
2022/06/23 02:38:40;;;;;;;12.93;4.30;;;;;;;21.87;66.42;97168.03;5056221;28;20248;-72
2022/06/23 02:41:12;;;;;;;12.57;4.90;;;;;;;21.91;66.47;97158.56;5053020;28;20416;-72
2022/06/23 02:44:05;;;;;;;14.57;5.00;;;;;;;21.94;66.36;97179.44;5048744;28;20430;-71
2022/06/23 02:47:06;;;;;;;10.87;4.47;;;;;;;21.96;66.57;97173.06;5048020;28;20429;-72
2022/06/23 02:50:08;;;;;;;12.13;4.63;;;;;;;21.92;66.22;97172.69;5027331;28;20425;-71
2022/06/23 02:52:45;;;;;;;14.20;4.50;;;;;;;21.87;66.33;97181.38;5044330;28;20759;-71
2022/06/23 02:55:43;;;;;;;12.63;4.57;;;;;;;21.90;66.33;97186.28;5052536;28;20568;-71
2022/06/23 02:58:25;;;;;;;14.23;5.07;;;;;;;21.89;66.07;97189.97;5046532;28;20551;-72
2022/06/23 03:01:01;;;;;;;10.93;4.10;;;;;;;21.84;66.54;97181.03;5047722;28;20425;-72
2022/06/23 03:03:42;;;;;;;14.60;4.60;;;;;;;21.77;66.64;97187.25;5053310;28;20457;-72
2022/06/23 03:06:15;;;;;;;13.63;4.30;;;;;;;21.73;66.47;97193.25;5051832;28;20459;-72
2022/06/23 03:08:53;;;;;;;11.47;4.30;;;;;;;21.67;66.37;97202.16;5053387;28;20495;-72
2022/06/23 03:14:25;;;;;;;14.13;4.67;;;;;;;21.67;66.27;97192.28;5052153;28;20446;-70
2022/06/23 03:16:54;;;;;;;16.13;4.70;;;;;;;21.73;66.32;97194.09;5051801;28;20469;-72
2022/06/23 03:19:27;;;;;;;9.60;4.60;;;;;;;21.78;66.38;97196.88;5051905;28;20464;-72
2022/06/23 03:22:15;;;;;;;14.50;5.00;;;;;;;21.79;66.31;97195.84;5051026;28;20502;-71
2022/06/23 03:25:07;;;;;;;10.90;4.10;;;;;;;21.82;65.96;97202.56;5052048;28;20488;-71
2022/06/23 03:27:47;;;;;;;6.93;4.00;;;;;;;21.83;66.15;97206.88;5044382;28;20441;-72
2022/06/23 03:30:44;;;;;;;13.23;4.00;;;;;;;21.79;66.25;97205.72;5051707;28;20433;-70
2022/06/23 03:33:13;;;;;;;15.57;4.40;;;;;;;21.73;66.15;97207.41;5052265;28;20470;-71
2022/06/23 03:35:47;;;;;;;11.30;4.60;;;;;;;21.70;66.18;97201.69;5054936;28;20448;-70
2022/06/23 03:41:36;;;;;;;15.70;4.23;;;;;;;21.58;66.50;97199.75;5051143;28;20987;-71
2022/06/23 03:44:23;;;;;;;10.40;4.83;;;;;;;21.63;66.33;97199.94;5051650;28;20437;-72
2022/06/23 03:46:54;;;;;;;13.83;4.43;;;;;;;21.65;66.06;97205.03;5042955;28;20560;-73
2022/06/23 03:49:41;;;;;;;12.60;4.70;;;;;;;21.55;66.14;97210.84;5051018;28;20830;-72
2022/06/23 03:52:26;;;;;;;10.80;4.67;;;;;;;21.60;66.34;97208.38;5046453;28;20464;-71
2022/06/23 03:54:59;;;;;;;19.83;4.83;;;;;;;21.63;66.33;97213.28;5035318;28;20518;-72
2022/06/23 03:57:33;;;;;;;11.90;4.63;;;;;;;21.61;66.45;97203.88;5043541;28;20556;-72
2022/06/23 04:00:20;;;;;;;9.60;4.57;;;;;;;21.62;66.44;97210.81;5066621;28;20522;-72
2022/06/23 04:02:50;;;;;;;15.13;4.90;;;;;;;21.64;66.45;97214.06;5065694;28;20432;-72
2022/06/23 04:05:22;;;;;;;15.33;4.70;;;;;;;21.71;66.41;97217.50;5059679;28;20445;-71
2022/06/23 04:07:51;;;;;;;7.67;3.73;;;;;;;21.73;66.51;97214.59;5054829;28;20860;-72
2022/06/23 04:10:41;;;;;;;12.63;5.67;;;;;;;21.67;66.58;97223.50;5057229;28;20514;-73
2022/06/23 04:13:36;;;;;;;13.30;4.80;;;;;;;21.67;66.38;97215.50;5059023;28;20469;-73
2022/06/23 04:16:05;;;;;;;18.83;8.73;;;;;;;21.58;67.02;97210.41;5050770;28;20487;-73
2022/06/23 04:18:31;;;;;;;17.50;8.00;;;;;;;21.55;66.69;97226.84;5053372;28;20461;-72
2022/06/23 04:21:14;;;;;;;17.17;4.80;;;;;;;21.52;66.73;97221.16;5066343;28;20433;-72
2022/06/23 04:23:43;;;;;;;10.63;5.13;;;;;;;21.54;66.90;97225.25;5045512;28;20436;-72
2022/06/23 04:26:15;;;;;;;8.07;4.20;;;;;;;21.61;66.73;97228.66;5052326;28;20457;-73
2022/06/23 04:28:45;;;;;;;16.13;5.70;;;;;;;21.61;66.51;97226.00;5047949;28;20471;-73
2022/06/23 04:31:16;;;;;;;15.90;5.27;;;;;;;21.66;66.54;97224.53;5064138;28;20460;-74
2022/06/23 04:33:43;;;;;;;11.63;5.73;;;;;;;21.68;66.59;97222.44;5038549;28;20481;-72
2022/06/23 04:36:31;;;;;;;12.10;5.07;;;;;;;21.67;66.59;97229.63;5063576;28;20467;-73
2022/06/23 04:38:59;;;;;;;13.90;5.30;;;;;;;21.70;66.46;97223.03;5055959;28;20441;-72
2022/06/23 04:41:29;;;;;;;10.43;4.90;;;;;;;21.62;66.75;97232.97;5065929;28;20430;-72
2022/06/23 04:44:01;;;;;;;11.33;5.23;;;;;;;21.58;67.15;97237.06;5047371;28;20437;-72
2022/06/23 04:46:39;;;;;;;13.50;5.60;;;;;;;21.60;66.79;97235.03;5062437;28;20544;-72
2022/06/23 04:49:25;;;;;;;15.00;5.40;;;;;;;21.58;67.09;97220.28;5056213;28;21022;-72
2022/06/23 04:52:12;;;;;;;14.77;5.27;;;;;;;21.49;67.43;97227.75;5054288;28;20436;-72
2022/06/23 04:54:57;;;;;;;11.63;5.47;;;;;;;21.56;67.50;97233.00;5048159;28;20436;-72
2022/06/23 04:57:38;;;;;;;14.83;5.47;;;;;;;21.64;67.59;97235.41;5049065;28;20488;-73
2022/06/23 05:00:04;;;;;;;11.17;4.80;;;;;;;21.76;67.09;97238.16;5048716;28;20444;-73
2022/06/23 05:02:34;;;;;;;13.70;4.80;;;;;;;21.80;66.90;97231.31;5059698;28;21124;-72
2022/06/23 05:05:16;;;;;;;17.30;5.37;;;;;;;21.87;67.10;97228.56;5059889;28;20465;-71
2022/06/23 05:08:05;;;;;;;11.83;5.23;;;;;;;21.94;67.23;97227.44;5052898;28;20803;-71
2022/06/23 05:10:37;;;;;;;8.63;4.70;;;;;;;22.03;66.85;97232.50;5044400;28;20421;-72
2022/06/23 05:13:07;;;;;;;17.87;5.27;;;;;;;22.02;67.30;97228.19;5059618;28;20491;-73
2022/06/23 05:15:43;;;;;;;12.57;4.80;;;;;;;22.15;67.33;97228.00;5056674;28;20433;-71
2022/06/23 05:18:21;;;;;;;11.10;5.40;;;;;;;22.28;67.18;97232.34;5062964;28;20474;-72
2022/06/23 05:20:50;;;;;;;15.90;5.53;;;;;;;22.40;67.05;97233.19;5057582;28;20437;-72
2022/06/23 05:23:28;;;;;;;16.40;4.97;;;;;;;22.54;67.04;97233.84;5056817;28;20510;-72
2022/06/23 05:25:55;;;;;;;15.10;5.30;;;;;;;22.62;66.80;97229.22;5057882;28;20465;-72
2022/06/23 05:28:24;;;;;;;13.50;5.63;;;;;;;22.68;66.94;97230.97;5059163;28;20425;-71
2022/06/23 05:30:53;;;;;;;24.53;5.40;;;;;;;22.70;66.87;97226.19;5056015;28;20512;-72
2022/06/23 05:33:31;;;;;;;11.33;4.93;;;;;;;22.85;67.15;97223.91;5058755;28;20473;-71
2022/06/23 05:35:59;;;;;;;16.20;4.67;;;;;;;23.01;66.73;97226.94;5068999;28;20448;-73
2022/06/23 05:38:30;;;;;;;13.00;4.70;;;;;;;23.14;66.54;97223.22;5047265;28;20981;-72
2022/06/23 05:40:58;;;;;;;16.43;4.87;;;;;;;23.30;66.42;97227.09;5042601;28;20434;-69
2022/06/23 05:43:25;;;;;;;11.10;5.10;;;;;;;23.43;65.92;97228.69;5059249;28;20429;-71
2022/06/23 05:45:56;;;;;;;15.23;5.00;;;;;;;23.55;65.50;97234.81;5051587;28;20449;-70
2022/06/23 05:48:30;;;;;;;19.37;5.40;;;;;;;23.65;65.33;97234.25;5039948;28;20436;-70
2022/06/23 05:51:00;;;;;;;11.60;5.07;;;;;;;23.79;64.92;97224.06;5042951;28;20521;-70
2022/06/23 05:53:33;;;;;;;15.50;5.20;;;;;;;23.93;64.74;97222.75;5047989;28;20416;-72
2022/06/23 05:56:14;;;;;;;13.33;4.63;;;;;;;24.06;64.37;97226.22;5031215;28;20460;-73
2022/06/23 05:58:46;;;;;;;13.97;4.70;;;;;;;24.09;62.95;97228.44;5035784;28;20457;-72
2022/06/23 06:01:24;;;;;;;12.10;4.50;;;;;;;24.06;62.73;97221.72;5034889;28;20435;-72
2022/06/23 06:04:01;;;;;;;13.40;4.70;;;;;;;24.23;62.76;97223.59;5039764;28;20987;-72
2022/06/23 06:06:27;;;;;;;28.83;5.13;;;;;;;24.35;62.51;97218.19;5031185;28;20531;-70
2022/06/23 06:11:45;;;;;;;20.60;4.70;;;;;;;24.51;61.33;97221.94;5038149;28;20262;-71
2022/06/23 06:14:12;;;;;;;15.13;4.60;;;;;;;24.61;61.65;97227.47;5037943;28;20424;-69
2022/06/23 06:16:38;;;;;;;8.50;4.33;;;;;;;24.76;61.75;97234.16;5034389;28;20465;-71
2022/06/23 06:19:04;;;;;;;19.13;4.80;;;;;;;24.64;61.72;97232.34;5040125;28;20434;-71
2022/06/23 06:21:29;;;;;;;14.90;4.37;;;;;;;24.82;61.19;97225.16;5040510;28;20262;-71
2022/06/23 06:24:04;;;;;;;16.30;4.23;;;;;;;25.01;60.72;97228.41;5040869;28;20449;-71
2022/06/23 06:26:33;;;;;;;15.43;4.50;;;;;;;25.16;60.52;97235.84;5034568;28;20247;-71
2022/06/23 06:29:10;;;;;;;8.70;3.83;;;;;;;25.28;59.39;97247.28;5025607;28;20436;-71
2022/06/23 06:31:41;;;;;;;16.73;4.40;;;;;;;25.26;59.99;97233.31;5033560;28;20434;-72
2022/06/23 06:34:15;;;;;;;10.60;4.27;;;;;;;25.42;59.56;97236.25;5010453;28;20479;-71
2022/06/23 06:36:47;;;;;;;19.53;4.90;;;;;;;25.36;58.81;97237.19;5034606;28;20477;-70
2022/06/23 06:39:16;;;;;;;16.83;4.57;;;;;;;25.54;58.86;97245.00;5033612;28;20441;-71
2022/06/23 06:41:46;;;;;;;10.37;3.93;;;;;;;25.45;57.97;97247.28;5043976;28;20501;-70
2022/06/23 06:44:13;;;;;;;10.07;3.40;;;;;;;25.65;57.67;97253.16;5036809;28;20480;-70
2022/06/23 06:46:39;;;;;;;13.90;4.57;;;;;;;25.81;57.79;97252.31;5042776;28;20800;-70
2022/06/23 06:49:06;;;;;;;12.00;4.73;;;;;;;25.64;57.10;97255.06;5038551;28;20465;-71
2022/06/23 06:51:32;;;;;;;7.60;4.00;;;;;;;25.52;57.78;97251.66;5041305;28;20434;-71
2022/06/23 06:54:03;;;;;;;15.47;4.83;;;;;;;25.78;57.56;97255.47;5042696;28;20999;-71
2022/06/23 06:56:35;;;;;;;18.67;4.50;;;;;;;25.99;57.51;97240.44;5038161;28;20445;-70
2022/06/23 06:59:08;;;;;;;12.63;4.00;;;;;;;26.19;56.85;97245.25;5036679;28;20776;-71
2022/06/23 07:01:35;;;;;;;19.50;4.50;;;;;;;26.36;56.64;97255.06;5046361;28;20449;-71
2022/06/23 07:04:01;;;;;;;11.83;3.90;;;;;;;26.52;55.73;97253.38;5053006;28;20940;-71
2022/06/23 07:06:38;;;;;;;13.47;4.07;;;;;;;26.69;55.33;97250.56;5039613;28;20456;-71
2022/06/23 07:09:11;;;;;;;12.67;3.70;;;;;;;26.79;53.99;97253.34;5051858;28;20218;-73
2022/06/23 07:11:49;;;;;;;7.60;3.77;;;;;;;26.90;53.23;97248.06;5046726;28;20491;-71
2022/06/23 07:14:31;;;;;;;10.47;3.90;;;;;;;27.03;53.47;97253.00;5051941;28;20982;-71
2022/06/23 07:17:01;;;;;;;10.70;3.77;;;;;;;27.11;53.00;97254.41;5051306;28;20514;-72
2022/06/23 07:19:58;;;;;;;18.40;3.77;;;;;;;27.23;52.40;97254.19;5046937;28;20483;-72
2022/06/23 07:22:31;;;;;;;8.13;2.93;;;;;;;27.34;50.99;97249.69;5043886;28;20441;-72
2022/06/23 07:25:18;;;;;;;10.00;3.40;;;;;;;27.40;50.80;97246.78;5052350;28;20421;-71
2022/06/23 07:27:54;;;;;;;13.20;3.57;;;;;;;27.54;50.55;97240.97;5044774;28;20460;-70
2022/06/23 07:30:28;;;;;;;9.60;3.30;;;;;;;27.72;50.43;97253.94;5050947;28;20463;-72
2022/06/23 07:33:12;;;;;;;14.67;3.97;;;;;;;27.74;49.82;97251.81;5053259;28;20432;-72
2022/06/23 07:35:48;;;;;;;12.50;3.97;;;;;;;27.75;50.11;97256.13;5050263;28;20580;-72
2022/06/23 07:38:30;;;;;;;12.57;3.37;;;;;;;27.84;49.49;97253.75;5049848;28;20457;-70
2022/06/23 07:41:02;;;;;;;15.37;3.30;;;;;;;27.93;49.51;97247.84;5052300;28;20427;-70
2022/06/23 07:43:59;;;;;;;8.50;3.33;;;;;;;28.05;49.39;97243.03;5048750;28;20954;-70
2022/06/23 07:46:24;;;;;;;9.47;3.17;;;;;;;27.79;49.03;97232.16;5052418;28;20438;-70
2022/06/23 07:48:50;;;;;;;9.80;3.10;;;;;;;27.91;48.01;97234.66;5052908;28;20483;-71
2022/06/23 07:51:16;;;;;;;14.13;3.53;;;;;;;27.71;49.21;97230.81;5053049;28;20183;-71
2022/06/23 07:53:44;;;;;;;15.17;3.50;;;;;;;27.82;48.68;97225.47;5052854;28;20186;-72
2022/06/23 07:56:16;;;;;;;13.07;3.40;;;;;;;27.93;48.69;97224.44;5051497;28;20207;-70
2022/06/23 07:58:43;;;;;;;17.73;4.23;;;;;;;28.12;47.83;97223.97;5052498;28;20988;-70
2022/06/23 08:01:16;;;;;;;19.27;3.77;;;;;;;28.29;48.43;97223.75;5049419;28;20461;-71
2022/06/23 08:04:09;;;;;;;7.30;3.23;;;;;;;28.48;47.79;97229.44;5053114;28;20816;-72
2022/06/23 08:06:35;;;;;;;10.43;3.03;;;;;;;28.57;46.17;97219.72;5040359;28;20437;-70
2022/06/23 08:09:33;;;;;;;14.90;3.10;;;;;;;28.74;46.67;97208.69;5052626;28;20437;-70
2022/06/23 08:17:51;;;;;;;13.47;3.27;;;;;;;29.06;45.59;97212.19;5046670;28;20487;-71
2022/06/23 08:20:20;;;;;;;7.77;2.60;;;;;;;29.19;45.73;97213.50;5054635;28;20460;-72
2022/06/23 08:22:47;;;;;;;13.37;3.40;;;;;;;29.34;45.11;97210.00;5056911;28;20474;-71
2022/06/23 08:25:13;;;;;;;15.00;3.00;;;;;;;29.37;44.38;97204.84;5049407;28;20856;-72
2022/06/23 08:27:41;;;;;;;12.90;2.90;;;;;;;29.39;44.20;97208.09;5045410;28;20442;-72
2022/06/23 08:30:14;;;;;;;12.83;3.67;;;;;;;29.48;44.51;97204.81;5050874;28;20425;-70
2022/06/23 08:32:41;;;;;;;19.57;3.07;;;;;;;29.65;44.11;97199.91;5045962;28;20430;-71
2022/06/23 08:35:12;;;;;;;13.10;3.17;;;;;;;29.73;44.23;97195.81;5052046;28;20930;-71
2022/06/23 08:37:43;;;;;;;7.87;2.87;;;;;;;29.80;43.12;97200.91;5050633;28;20891;-71
2022/06/23 08:40:19;;;;;;;5.97;2.50;;;;;;;29.98;42.93;97186.00;5051720;28;20507;-71
2022/06/23 08:42:59;;;;;;;16.33;3.23;;;;;;;29.96;43.40;97182.75;5053249;28;20428;-71
2022/06/23 08:45:31;;;;;;;11.20;2.73;;;;;;;30.08;42.54;97185.09;5051881;28;20424;-71
2022/06/23 08:48:15;;;;;;;8.23;2.63;;;;;;;30.23;42.25;97178.81;5051695;28;20441;-72
2022/06/23 08:50:51;;;;;;;14.03;2.97;;;;;;;30.35;42.25;97184.66;5050720;28;20421;-72
2022/06/23 08:53:32;;;;;;;11.33;2.63;;;;;;;30.49;41.56;97187.53;5050514;28;20546;-71
2022/06/23 08:56:18;;;;;;;10.43;3.10;;;;;;;30.59;41.68;97173.16;5048121;28;20452;-71
2022/06/23 08:58:53;;;;;;;10.87;2.60;;;;;;;30.69;40.82;97178.47;5046492;28;20461;-71
2022/06/23 09:01:27;;;;;;;12.30;2.73;;;;;;;30.84;41.15;97176.72;5050670;28;20425;-72
2022/06/23 09:04:00;;;;;;;18.03;2.70;;;;;;;30.87;40.42;97179.66;5051632;28;20433;-71
2022/06/23 09:06:32;;;;;;;8.97;2.67;;;;;;;30.90;39.64;97178.25;5044830;28;21011;-71
2022/06/23 09:09:15;;;;;;;4.80;2.10;;;;;;;31.02;39.56;97183.31;5052123;28;20425;-73
2022/06/23 09:11:51;;;;;;;16.60;2.90;;;;;;;31.08;39.17;97180.25;5044185;28;20857;-71
2022/06/23 09:14:31;;;;;;;9.57;2.63;;;;;;;30.70;37.68;97182.78;5049859;28;20936;-71
2022/06/23 09:17:25;;;;;;;7.37;2.20;;;;;;;30.38;39.17;97172.47;5051072;28;20858;-70
2022/06/23 09:20:07;;;;;;;11.47;3.33;;;;;;;30.73;39.44;97171.41;5048360;28;20924;-72
2022/06/23 09:22:49;;;;;;;8.80;3.17;;;;;;;30.94;39.74;97173.91;5018070;28;20417;-71
2022/06/23 09:25:35;;;;;;;6.23;2.60;;;;;;;30.98;40.35;97180.38;5049640;28;20429;-71
2022/06/23 09:28:15;;;;;;;9.50;2.13;;;;;;;31.12;39.10;97169.69;5051036;28;20768;-72
2022/06/23 09:30:47;;;;;;;9.30;2.67;;;;;;;31.09;37.85;97162.13;5051397;28;20429;-72
2022/06/23 09:33:13;;;;;;;11.70;2.90;;;;;;;31.26;38.50;97161.69;5050426;28;20800;-72
2022/06/23 09:35:38;;;;;;;12.50;2.97;;;;;;;31.37;38.63;97156.97;5046852;28;20440;-70
2022/06/23 09:38:41;;;;;;;10.43;2.73;;;;;;;31.42;37.68;97159.63;5047369;28;20215;-73
2022/06/23 09:41:25;;;;;;;6.73;2.40;;;;;;;31.51;37.50;97163.28;5051626;28;20190;-72
2022/06/23 09:44:01;;;;;;;8.90;2.80;;;;;;;31.62;37.17;97161.28;5050937;28;20784;-70
2022/06/23 09:46:37;;;;;;;7.80;2.80;;;;;;;31.79;38.05;97155.38;5050655;28;20441;-70
2022/06/23 09:49:49;;;;;;;8.00;2.63;;;;;;;31.96;37.41;97154.88;5045949;28;20436;-70
2022/06/23 09:53:02;;;;;;;9.70;2.60;;;;;;;32.09;37.03;97149.81;5049414;28;20468;-71
2022/06/23 09:55:53;;;;;;;8.97;2.67;;;;;;;31.48;36.93;97144.91;5038913;28;20527;-70
2022/06/23 09:58:55;;;;;;;7.33;2.27;;;;;;;31.86;38.02;97150.41;5050336;28;20504;-71
2022/06/23 10:01:42;;;;;;;6.53;2.37;;;;;;;32.04;37.63;97133.63;5049542;28;20512;-71
2022/06/23 10:04:30;;;;;;;11.50;3.10;;;;;;;32.24;37.61;97149.56;5050188;28;20440;-71
2022/06/23 10:07:08;;;;;;;14.97;2.93;;;;;;;32.24;37.19;97141.44;5050496;28;20964;-70
2022/06/23 10:09:52;;;;;;;10.40;2.50;;;;;;;32.38;37.15;97148.84;5048394;28;20418;-70
2022/06/23 10:12:49;;;;;;;8.43;2.40;;;;;;;32.65;36.60;97142.69;5052638;28;20850;-71
2022/06/23 10:16:02;;;;;;;16.00;2.90;;;;;;;32.80;34.94;97144.34;5025900;28;20436;-71
2022/06/23 10:18:50;;;;;;;11.47;2.83;;;;;;;32.83;34.47;97143.75;5037577;28;20979;-72
2022/06/23 10:21:20;;;;;;;13.53;2.90;;;;;;;32.73;35.02;97133.06;5049882;28;20822;-72
2022/06/23 10:23:55;;;;;;;12.60;2.20;;;;;;;32.74;33.39;97142.81;5051087;28;20421;-72
2022/06/23 10:26:39;;;;;;;5.97;2.77;;;;;;;32.96;33.43;97135.94;5050480;28;20587;-73
2022/06/23 10:29:16;;;;;;;7.40;2.57;;;;;;;32.89;33.54;97139.84;5050665;28;20437;-71
2022/06/23 10:32:16;;;;;;;10.60;2.93;;;;;;;32.98;33.35;97125.59;5053033;28;20431;-71
2022/06/23 10:34:55;;;;;;;10.03;2.40;;;;;;;33.23;32.88;97121.56;5048920;28;20437;-71
2022/06/23 10:37:36;;;;;;;7.70;2.60;;;;;;;33.40;33.80;97118.25;5047395;28;20496;-71
2022/06/23 10:40:43;;;;;;;9.70;2.53;;;;;;;33.46;33.04;97127.91;5054484;28;20476;-70
2022/06/23 10:43:19;;;;;;;8.87;2.47;;;;;;;33.66;33.32;97121.22;5063648;28;20518;-71
2022/06/23 10:45:56;;;;;;;9.07;2.30;;;;;;;33.72;32.47;97127.34;5048900;28;20417;-72
2022/06/23 10:48:21;;;;;;;11.90;2.47;;;;;;;33.72;31.65;97105.63;5053838;28;20436;-70
2022/06/23 10:51:15;;;;;;;7.83;2.40;;;;;;;33.67;32.15;97106.53;5054306;28;20443;-70
2022/06/23 10:54:22;;;;;;;9.13;2.27;;;;;;;33.35;31.24;97104.78;5050606;28;20236;-71
2022/06/23 10:57:26;;;;;;;11.83;2.27;;;;;;;33.50;30.66;97106.38;5050546;28;20480;-72
2022/06/23 11:00:01;;;;;;;7.50;2.03;;;;;;;33.51;29.52;97100.66;5049942;28;20444;-70
2022/06/23 11:02:48;;;;;;;13.73;2.70;;;;;;;33.63;31.53;97089.25;5053571;28;20416;-72
2022/06/23 11:05:22;;;;;;;9.47;2.20;;;;;;;33.87;31.85;97081.94;5053295;28;20416;-71
2022/06/23 11:08:11;;;;;;;8.90;2.50;;;;;;;33.99;30.91;97082.22;5051169;28;20448;-70
2022/06/23 11:10:55;;;;;;;6.13;2.03;;;;;;;34.00;30.65;97090.03;5040889;28;20435;-71
2022/06/23 11:13:27;;;;;;;9.20;2.30;;;;;;;34.17;30.13;97079.59;5053610;28;20429;-72
2022/06/23 11:16:21;;;;;;;8.10;2.23;;;;;;;34.31;29.31;97069.44;5052551;28;20472;-71
2022/06/23 11:19:13;;;;;;;9.93;2.67;;;;;;;34.35;29.32;97065.00;5043059;28;20517;-72
2022/06/23 11:22:01;;;;;;;11.30;2.10;;;;;;;34.36;29.56;97058.47;5047227;28;20413;-70
2022/06/23 11:24:33;;;;;;;11.37;2.20;;;;;;;34.38;29.49;97053.50;5058682;28;20520;-70
2022/06/23 11:27:01;;;;;;;9.20;2.47;;;;;;;34.47;30.31;97058.22;5049609;28;20480;-70
2022/06/23 11:29:51;;;;;;;10.70;2.07;;;;;;;34.50;30.63;97061.09;5052062;28;20943;-71
2022/06/23 11:32:35;;;;;;;7.33;2.17;;;;;;;34.62;29.84;97060.53;5051973;28;20920;-71
2022/06/23 11:35:16;;;;;;;8.20;1.80;;;;;;;34.64;29.64;97061.03;5052618;28;20437;-71
2022/06/23 11:38:04;;;;;;;11.37;2.20;;;;;;;34.62;29.80;97063.25;5046654;28;20464;-70
2022/06/23 11:40:36;;;;;;;7.87;2.23;;;;;;;34.56;29.75;97053.59;5044935;28;20417;-70
2022/06/23 11:43:22;;;;;;;11.50;2.57;;;;;;;34.73;29.57;97053.69;5051762;28;20440;-70
2022/06/23 11:46:09;;;;;;;12.33;2.70;;;;;;;34.84;29.67;97047.97;5047659;28;20437;-71
2022/06/23 11:49:10;;;;;;;9.00;2.30;;;;;;;34.83;29.74;97051.81;5052991;28;20421;-71
2022/06/23 11:51:47;;;;;;;7.80;2.03;;;;;;;34.89;30.11;97047.84;5046412;28;20421;-72
2022/06/23 11:54:19;;;;;;;11.30;2.90;;;;;;;35.05;30.30;97050.94;5051137;28;20421;-71
2022/06/23 11:57:12;;;;;;;13.57;2.50;;;;;;;35.19;30.20;97045.34;5051290;28;20448;-71
2022/06/23 11:59:59;;;;;;;9.73;2.20;;;;;;;35.33;30.23;97037.84;5045605;28;20765;-72
2022/06/23 12:02:25;;;;;;;13.30;2.80;;;;;;;35.22;29.34;97036.56;5052491;28;20919;-71
2022/06/23 12:05:12;;;;;;;13.00;2.30;;;;;;;35.37;30.62;97032.56;5052823;28;20443;-72
2022/06/23 12:07:49;;;;;;;8.67;2.10;;;;;;;34.95;30.00;97026.75;5055852;28;20225;-71
2022/06/23 12:10:22;;;;;;;8.60;2.83;;;;;;;35.06;29.81;97022.59;5051029;28;20973;-72
2022/06/23 12:12:52;;;;;;;8.70;2.43;;;;;;;35.20;30.34;97020.56;5052313;28;20435;-71
2022/06/23 12:15:20;;;;;;;7.20;2.33;;;;;;;34.91;29.95;97026.53;5052132;28;20436;-72
2022/06/23 12:17:50;;;;;;;11.03;2.07;;;;;;;34.90;29.37;97027.66;5050725;28;20467;-71
2022/06/23 12:20:48;;;;;;;18.20;2.30;;;;;;;34.85;29.51;97022.34;5051065;28;20845;-70
2022/06/23 12:23:24;;;;;;;8.70;2.17;;;;;;;34.89;29.84;97013.25;5041158;28;20417;-71
2022/06/23 12:26:03;;;;;;;9.93;2.23;;;;;;;35.08;29.04;97011.38;5051969;28;20436;-71
2022/06/23 12:28:46;;;;;;;9.77;2.23;;;;;;;35.14;29.99;97016.38;5049859;28;20911;-71